Aviation Digital Data Service (ADDS)

Output produced by METARs form (0038 UTC 23 October 2014)
found at http://aviationweather.gov/adds/metars/
 
KPQI 222335Z 2300/2324 04010KT P6SM OVC090 
     FM230300 04010KT P6SM OVC015 
     FM230600 04010KT P6SM VCSH OVC008 
     FM231400 04011KT 3SM -RA OVC010 AMD LTD TO CLD VIS AND WIND